KSPI/SPI METAR and TAF weather

Enter ICAO airport designator
Station Type Date Time Source
KSPI METAR 2019/05/23 18:52 UTC NOAA

KSPI 231852Z 28006KT 10SM CLR 24/14 A3010 RMK AO2 SLP188 T02390144


Station Type Date Time Source
KSPI Decoded METAR 2019/05/23 18:52 UTC NOAA

ABRAHAM LINCOLN CAPITAL AIRPORT , IL, United States (KSPI) 39-51N 89-41W 181M
May 23, 2019 - 02:52 PM EDT / 2019.05.23 1852 UTC
Wind: from the W (280 degrees) at 7 MPH (6 KT):0
Visibility: 10 mile(s):0
Sky conditions: clear
Temperature: 75.0 F (23.9 C)
Dew Point: 57.9 F (14.4 C)
Relative Humidity: 55%
Pressure (altimeter): 30.1 in. Hg (1019 hPa)
ob: KSPI 231852Z 28006KT 10SM CLR 24/14 A3010 RMK AO2 SLP188 T02390144
cycle: 19

Station Type Date Time Source
KSPI TAF 2019/05/23 18:30 UTC NOAA

TAF KSPI 231726Z 2318/2418 30008KT P6SM SCT035 BKN250
FM240700 08005KT P6SM VCTS OVC080CB
FM241000 11006KT P6SM BKN050
FM241500 18007KT P6SM SCT120

Example: see airport list